sensor_id;sensor_type;location;lat;lon;timestamp;P1;durP1;ratioP1;P2;durP2;ratioP2
25213;SDS011;13160;51.834;4.706;2022-11-03T00:02:15;17.25;;;4.10;;
25213;SDS011;13160;51.834;4.706;2022-11-03T00:04:44;16.88;;;4.47;;
25213;SDS011;13160;51.834;4.706;2022-11-03T00:07:18;10.77;;;3.40;;
25213;SDS011;13160;51.834;4.706;2022-11-03T00:09:48;17.35;;;4.20;;
25213;SDS011;13160;51.834;4.706;2022-11-03T00:12:17;18.75;;;4.97;;
25213;SDS011;13160;51.834;4.706;2022-11-03T00:14:47;15.57;;;3.90;;
25213;SDS011;13160;51.834;4.706;2022-11-03T00:17:18;13.55;;;3.75;;
25213;SDS011;13160;51.834;4.706;2022-11-03T00:19:51;15.98;;;3.70;;
25213;SDS011;13160;51.834;4.706;2022-11-03T00:22:20;16.92;;;4.13;;
25213;SDS011;13160;51.834;4.706;2022-11-03T00:25:17;16.27;;;3.47;;
25213;SDS011;13160;51.834;4.706;2022-11-03T00:27:52;14.18;;;3.80;;
25213;SDS011;13160;51.834;4.706;2022-11-03T00:30:22;18.60;;;4.25;;
25213;SDS011;13160;51.834;4.706;2022-11-03T00:32:58;13.85;;;3.05;;
25213;SDS011;13160;51.834;4.706;2022-11-03T00:35:27;17.00;;;4.03;;
25213;SDS011;13160;51.834;4.706;2022-11-03T00:37:56;17.33;;;3.80;;
25213;SDS011;13160;51.834;4.706;2022-11-03T00:40:25;14.35;;;3.75;;
25213;SDS011;13160;51.834;4.706;2022-11-03T00:42:54;14.98;;;3.95;;
25213;SDS011;13160;51.834;4.706;2022-11-03T00:45:23;18.27;;;4.65;;
25213;SDS011;13160;51.834;4.706;2022-11-03T00:47:54;14.05;;;3.63;;
25213;SDS011;13160;51.834;4.706;2022-11-03T00:50:42;13.05;;;3.55;;
25213;SDS011;13160;51.834;4.706;2022-11-03T00:53:17;12.63;;;3.40;;
25213;SDS011;13160;51.834;4.706;2022-11-03T00:55:48;13.60;;;4.15;;
25213;SDS011;13160;51.834;4.706;2022-11-03T00:58:16;12.25;;;3.60;;
25213;SDS011;13160;51.834;4.706;2022-11-03T01:00:46;12.77;;;3.53;;
25213;SDS011;13160;51.834;4.706;2022-11-03T01:03:15;13.43;;;3.63;;
25213;SDS011;13160;51.834;4.706;2022-11-03T01:05:45;14.57;;;3.78;;
25213;SDS011;13160;51.834;4.706;2022-11-03T01:08:32;17.75;;;4.13;;
25213;SDS011;13160;51.834;4.706;2022-11-03T01:11:07;14.95;;;5.00;;
25213;SDS011;13160;51.834;4.706;2022-11-03T01:13:56;15.57;;;3.75;;
25213;SDS011;13160;51.834;4.706;2022-11-03T01:16:25;13.23;;;3.53;;
25213;SDS011;13160;51.834;4.706;2022-11-03T01:18:55;19.52;;;4.20;;
25213;SDS011;13160;51.834;4.706;2022-11-03T01:21:27;14.85;;;4.00;;
25213;SDS011;13160;51.834;4.706;2022-11-03T01:23:58;13.70;;;3.30;;
25213;SDS011;13160;51.834;4.706;2022-11-03T01:26:29;13.20;;;3.55;;
25213;SDS011;13160;51.834;4.706;2022-11-03T01:28:58;15.95;;;3.63;;
25213;SDS011;13160;51.834;4.706;2022-11-03T01:31:28;16.08;;;3.53;;
25213;SDS011;13160;51.834;4.706;2022-11-03T01:34:00;15.98;;;3.30;;
25213;SDS011;13160;51.834;4.706;2022-11-03T01:36:30;13.25;;;3.22;;
25213;SDS011;13160;51.834;4.706;2022-11-03T01:39:00;13.73;;;3.72;;
25213;SDS011;13160;51.834;4.706;2022-11-03T01:41:29;13.23;;;3.78;;
25213;SDS011;13160;51.834;4.706;2022-11-03T01:47:16;14.25;;;3.63;;
25213;SDS011;13160;51.834;4.706;2022-11-03T01:49:51;12.80;;;3.63;;
25213;SDS011;13160;51.834;4.706;2022-11-03T01:52:29;14.30;;;3.97;;
25213;SDS011;13160;51.834;4.706;2022-11-03T01:55:03;14.07;;;4.15;;
25213;SDS011;13160;51.834;4.706;2022-11-03T01:57:36;12.50;;;3.50;;
25213;SDS011;13160;51.834;4.706;2022-11-03T02:00:09;17.73;;;3.92;;
25213;SDS011;13160;51.834;4.706;2022-11-03T02:02:39;13.93;;;4.15;;
25213;SDS011;13160;51.834;4.706;2022-11-03T02:05:08;13.60;;;3.47;;
25213;SDS011;13160;51.834;4.706;2022-11-03T02:07:42;16.45;;;3.55;;
25213;SDS011;13160;51.834;4.706;2022-11-03T02:10:18;13.77;;;4.10;;
25213;SDS011;13160;51.834;4.706;2022-11-03T02:12:47;16.85;;;3.78;;
25213;SDS011;13160;51.834;4.706;2022-11-03T02:15:18;17.02;;;4.50;;
25213;SDS011;13160;51.834;4.706;2022-11-03T02:17:51;15.10;;;3.60;;
25213;SDS011;13160;51.834;4.706;2022-11-03T02:20:23;13.45;;;3.63;;
25213;SDS011;13160;51.834;4.706;2022-11-03T02:23:05;14.77;;;3.53;;
25213;SDS011;13160;51.834;4.706;2022-11-03T02:25:53;19.27;;;3.80;;
25213;SDS011;13160;51.834;4.706;2022-11-03T02:28:26;14.02;;;3.67;;
25213;SDS011;13160;51.834;4.706;2022-11-03T02:31:00;15.40;;;3.53;;
25213;SDS011;13160;51.834;4.706;2022-11-03T02:33:40;14.02;;;3.22;;
25213;SDS011;13160;51.834;4.706;2022-11-03T02:36:17;14.07;;;3.60;;
25213;SDS011;13160;51.834;4.706;2022-11-03T02:38:59;14.40;;;3.88;;
25213;SDS011;13160;51.834;4.706;2022-11-03T02:41:41;10.95;;;3.17;;
25213;SDS011;13160;51.834;4.706;2022-11-03T02:44:14;15.73;;;4.13;;
25213;SDS011;13160;51.834;4.706;2022-11-03T02:46:45;15.82;;;4.05;;
25213;SDS011;13160;51.834;4.706;2022-11-03T02:49:18;13.30;;;2.97;;
25213;SDS011;13160;51.834;4.706;2022-11-03T02:52:01;15.80;;;3.88;;
25213;SDS011;13160;51.834;4.706;2022-11-03T02:54:40;15.93;;;3.65;;
25213;SDS011;13160;51.834;4.706;2022-11-03T02:57:19;14.57;;;3.67;;
25213;SDS011;13160;51.834;4.706;2022-11-03T02:59:55;14.43;;;4.28;;
25213;SDS011;13160;51.834;4.706;2022-11-03T03:02:31;13.98;;;3.80;;
25213;SDS011;13160;51.834;4.706;2022-11-03T03:05:07;13.05;;;4.18;;
25213;SDS011;13160;51.834;4.706;2022-11-03T03:07:39;10.95;;;3.55;;
25213;SDS011;13160;51.834;4.706;2022-11-03T03:10:14;13.55;;;4.30;;
25213;SDS011;13160;51.834;4.706;2022-11-03T03:12:47;14.20;;;3.65;;
25213;SDS011;13160;51.834;4.706;2022-11-03T03:15:19;13.25;;;3.50;;
25213;SDS011;13160;51.834;4.706;2022-11-03T03:17:56;14.55;;;3.78;;
25213;SDS011;13160;51.834;4.706;2022-11-03T03:20:36;12.20;;;3.33;;
25213;SDS011;13160;51.834;4.706;2022-11-03T03:23:11;15.32;;;4.15;;
25213;SDS011;13160;51.834;4.706;2022-11-03T03:25:47;17.60;;;4.18;;
25213;SDS011;13160;51.834;4.706;2022-11-03T03:28:23;12.95;;;3.92;;
25213;SDS011;13160;51.834;4.706;2022-11-03T03:30:58;17.35;;;4.38;;
25213;SDS011;13160;51.834;4.706;2022-11-03T03:33:32;15.07;;;3.38;;
25213;SDS011;13160;51.834;4.706;2022-11-03T03:36:06;14.98;;;3.90;;
25213;SDS011;13160;51.834;4.706;2022-11-03T03:38:41;11.38;;;3.67;;
25213;SDS011;13160;51.834;4.706;2022-11-03T03:41:15;17.15;;;4.38;;
25213;SDS011;13160;51.834;4.706;2022-11-03T03:43:49;16.27;;;3.53;;
25213;SDS011;13160;51.834;4.706;2022-11-03T03:46:21;13.82;;;3.63;;
25213;SDS011;13160;51.834;4.706;2022-11-03T03:49:10;14.13;;;4.05;;
25213;SDS011;13160;51.834;4.706;2022-11-03T03:51:39;11.77;;;3.60;;
25213;SDS011;13160;51.834;4.706;2022-11-03T03:54:09;14.43;;;3.60;;
25213;SDS011;13160;51.834;4.706;2022-11-03T03:56:40;17.25;;;3.47;;
25213;SDS011;13160;51.834;4.706;2022-11-03T03:59:14;15.18;;;4.10;;
25213;SDS011;13160;51.834;4.706;2022-11-03T04:01:44;13.38;;;3.80;;
25213;SDS011;13160;51.834;4.706;2022-11-03T04:04:14;14.95;;;3.97;;
25213;SDS011;13160;51.834;4.706;2022-11-03T04:06:44;14.57;;;3.63;;
25213;SDS011;13160;51.834;4.706;2022-11-03T04:09:13;15.63;;;4.10;;
25213;SDS011;13160;51.834;4.706;2022-11-03T04:11:42;18.42;;;4.47;;
25213;SDS011;13160;51.834;4.706;2022-11-03T04:14:30;16.10;;;4.05;;
25213;SDS011;13160;51.834;4.706;2022-11-03T04:17:19;15.23;;;3.58;;
25213;SDS011;13160;51.834;4.706;2022-11-03T04:20:08;17.50;;;4.38;;
25213;SDS011;13160;51.834;4.706;2022-11-03T04:22:57;12.90;;;3.33;;
25213;SDS011;13160;51.834;4.706;2022-11-03T04:25:29;17.70;;;4.32;;
25213;SDS011;13160;51.834;4.706;2022-11-03T04:27:57;12.85;;;3.78;;
25213;SDS011;13160;51.834;4.706;2022-11-03T04:30:33;15.75;;;3.60;;
25213;SDS011;13160;51.834;4.706;2022-11-03T04:33:03;14.02;;;3.50;;
25213;SDS011;13160;51.834;4.706;2022-11-03T04:35:42;15.55;;;3.95;;
25213;SDS011;13160;51.834;4.706;2022-11-03T04:38:20;16.48;;;3.92;;
25213;SDS011;13160;51.834;4.706;2022-11-03T04:40:53;15.35;;;3.55;;
25213;SDS011;13160;51.834;4.706;2022-11-03T04:43:28;14.32;;;4.00;;
25213;SDS011;13160;51.834;4.706;2022-11-03T04:46:03;13.32;;;3.72;;
25213;SDS011;13160;51.834;4.706;2022-11-03T04:48:39;15.57;;;4.00;;
25213;SDS011;13160;51.834;4.706;2022-11-03T04:51:19;18.33;;;4.10;;
25213;SDS011;13160;51.834;4.706;2022-11-03T04:54:11;10.07;;;3.28;;
25213;SDS011;13160;51.834;4.706;2022-11-03T04:56:51;12.65;;;3.78;;
25213;SDS011;13160;51.834;4.706;2022-11-03T04:59:23;14.57;;;4.15;;
25213;SDS011;13160;51.834;4.706;2022-11-03T05:02:07;14.02;;;3.53;;
25213;SDS011;13160;51.834;4.706;2022-11-03T05:04:43;13.13;;;3.42;;
25213;SDS011;13160;51.834;4.706;2022-11-03T05:07:20;13.20;;;3.85;;
25213;SDS011;13160;51.834;4.706;2022-11-03T05:10:06;12.00;;;3.47;;
25213;SDS011;13160;51.834;4.706;2022-11-03T05:12:51;16.92;;;3.60;;
25213;SDS011;13160;51.834;4.706;2022-11-03T05:15:30;14.45;;;3.80;;
25213;SDS011;13160;51.834;4.706;2022-11-03T05:18:12;11.27;;;3.53;;
25213;SDS011;13160;51.834;4.706;2022-11-03T05:20:50;11.02;;;3.38;;
25213;SDS011;13160;51.834;4.706;2022-11-03T05:23:22;10.77;;;3.05;;
25213;SDS011;13160;51.834;4.706;2022-11-03T05:25:57;13.35;;;3.33;;
25213;SDS011;13160;51.834;4.706;2022-11-03T05:28:27;12.68;;;3.58;;
25213;SDS011;13160;51.834;4.706;2022-11-03T05:31:02;15.77;;;4.20;;
25213;SDS011;13160;51.834;4.706;2022-11-03T05:33:52;13.52;;;3.97;;
25213;SDS011;13160;51.834;4.706;2022-11-03T05:36:28;13.00;;;4.22;;
25213;SDS011;13160;51.834;4.706;2022-11-03T05:39:00;15.05;;;3.95;;
25213;SDS011;13160;51.834;4.706;2022-11-03T05:41:53;11.38;;;3.85;;
25213;SDS011;13160;51.834;4.706;2022-11-03T05:44:24;14.05;;;3.67;;
25213;SDS011;13160;51.834;4.706;2022-11-03T05:46:59;14.93;;;3.65;;
25213;SDS011;13160;51.834;4.706;2022-11-03T05:49:35;11.07;;;3.50;;
25213;SDS011;13160;51.834;4.706;2022-11-03T05:52:04;15.57;;;3.85;;
25213;SDS011;13160;51.834;4.706;2022-11-03T05:54:40;12.57;;;4.03;;
25213;SDS011;13160;51.834;4.706;2022-11-03T05:57:10;12.60;;;3.58;;
25213;SDS011;13160;51.834;4.706;2022-11-03T05:59:42;8.82;;;3.25;;
25213;SDS011;13160;51.834;4.706;2022-11-03T06:02:17;13.95;;;4.32;;
25213;SDS011;13160;51.834;4.706;2022-11-03T06:05:04;13.88;;;3.90;;
25213;SDS011;13160;51.834;4.706;2022-11-03T06:07:47;12.07;;;3.67;;
25213;SDS011;13160;51.834;4.706;2022-11-03T06:11:09;14.73;;;4.22;;
25213;SDS011;13160;51.834;4.706;2022-11-03T06:18:42;16.92;;;4.43;;
25213;SDS011;13160;51.834;4.706;2022-11-03T06:26:19;13.93;;;3.80;;
25213;SDS011;13160;51.834;4.706;2022-11-03T06:33:51;14.13;;;3.80;;
25213;SDS011;13160;51.834;4.706;2022-11-03T06:36:22;13.27;;;3.92;;
25213;SDS011;13160;51.834;4.706;2022-11-03T06:41:53;17.17;;;3.95;;
25213;SDS011;13160;51.834;4.706;2022-11-03T06:48:01;13.15;;;4.00;;
25213;SDS011;13160;51.834;4.706;2022-11-03T07:09:45;11.45;;;3.58;;
25213;SDS011;13160;51.834;4.706;2022-11-03T07:13:13;15.35;;;4.28;;
25213;SDS011;13160;51.834;4.706;2022-11-03T07:17:17;11.43;;;3.92;;
25213;SDS011;13160;51.834;4.706;2022-11-03T07:20:56;14.73;;;4.07;;
25213;SDS011;13160;51.834;4.706;2022-11-03T07:24:44;13.60;;;4.22;;
25213;SDS011;13160;51.834;4.706;2022-11-03T07:27:18;17.55;;;4.40;;
25213;SDS011;13160;51.834;4.706;2022-11-03T07:29:59;14.55;;;4.05;;
25213;SDS011;13160;51.834;4.706;2022-11-03T07:32:48;12.88;;;4.07;;
25213;SDS011;13160;51.834;4.706;2022-11-03T07:35:29;13.52;;;4.35;;
25213;SDS011;13160;51.834;4.706;2022-11-03T07:38:33;11.93;;;4.00;;
25213;SDS011;13160;51.834;4.706;2022-11-03T07:41:08;12.82;;;4.18;;
25213;SDS011;13160;51.834;4.706;2022-11-03T07:43:58;12.73;;;4.22;;
25213;SDS011;13160;51.834;4.706;2022-11-03T07:46:45;15.43;;;4.53;;
25213;SDS011;13160;51.834;4.706;2022-11-03T07:49:36;15.07;;;4.35;;
25213;SDS011;13160;51.834;4.706;2022-11-03T07:52:13;14.15;;;3.97;;
25213;SDS011;13160;51.834;4.706;2022-11-03T07:55:10;16.25;;;4.32;;
25213;SDS011;13160;51.834;4.706;2022-11-03T07:57:46;11.50;;;4.38;;
25213;SDS011;13160;51.834;4.706;2022-11-03T08:00:25;16.08;;;4.18;;
25213;SDS011;13160;51.834;4.706;2022-11-03T08:03:12;20.23;;;4.40;;
25213;SDS011;13160;51.834;4.706;2022-11-03T08:06:31;11.63;;;3.92;;
25213;SDS011;13160;51.834;4.706;2022-11-03T08:09:38;14.93;;;4.57;;
25213;SDS011;13160;51.834;4.706;2022-11-03T08:12:11;12.43;;;3.95;;
25213;SDS011;13160;51.834;4.706;2022-11-03T08:14:52;14.80;;;4.03;;
25213;SDS011;13160;51.834;4.706;2022-11-03T08:17:40;16.30;;;4.13;;
25213;SDS011;13160;51.834;4.706;2022-11-03T08:20:41;15.00;;;4.50;;
25213;SDS011;13160;51.834;4.706;2022-11-03T08:23:36;19.33;;;4.53;;
25213;SDS011;13160;51.834;4.706;2022-11-03T08:26:46;14.68;;;4.45;;
25213;SDS011;13160;51.834;4.706;2022-11-03T08:29:43;15.73;;;4.13;;
25213;SDS011;13160;51.834;4.706;2022-11-03T08:32:33;13.82;;;3.42;;
25213;SDS011;13160;51.834;4.706;2022-11-03T08:35:30;16.30;;;4.28;;
25213;SDS011;13160;51.834;4.706;2022-11-03T08:38:04;9.93;;;3.85;;
25213;SDS011;13160;51.834;4.706;2022-11-03T08:40:44;10.57;;;3.75;;
25213;SDS011;13160;51.834;4.706;2022-11-03T08:43:52;11.68;;;3.53;;
25213;SDS011;13160;51.834;4.706;2022-11-03T08:46:26;12.32;;;3.40;;
25213;SDS011;13160;51.834;4.706;2022-11-03T08:49:09;12.68;;;3.85;;
25213;SDS011;13160;51.834;4.706;2022-11-03T08:51:41;19.05;;;4.57;;
25213;SDS011;13160;51.834;4.706;2022-11-03T08:54:12;14.30;;;4.25;;
25213;SDS011;13160;51.834;4.706;2022-11-03T08:56:52;14.57;;;4.10;;
25213;SDS011;13160;51.834;4.706;2022-11-03T08:59:23;16.88;;;4.32;;
25213;SDS011;13160;51.834;4.706;2022-11-03T09:01:53;13.40;;;4.32;;
25213;SDS011;13160;51.834;4.706;2022-11-03T09:04:34;10.85;;;3.70;;
25213;SDS011;13160;51.834;4.706;2022-11-03T09:07:19;10.05;;;3.28;;
25213;SDS011;13160;51.834;4.706;2022-11-03T09:10:10;12.98;;;4.15;;
25213;SDS011;13160;51.834;4.706;2022-11-03T09:12:43;12.93;;;4.10;;
25213;SDS011;13160;51.834;4.706;2022-11-03T09:15:21;13.40;;;3.35;;
25213;SDS011;13160;51.834;4.706;2022-11-03T09:17:53;14.43;;;3.80;;
25213;SDS011;13160;51.834;4.706;2022-11-03T09:20:34;17.98;;;3.72;;
25213;SDS011;13160;51.834;4.706;2022-11-03T09:23:04;13.50;;;3.10;;
25213;SDS011;13160;51.834;4.706;2022-11-03T09:25:38;12.82;;;3.33;;
25213;SDS011;13160;51.834;4.706;2022-11-03T09:28:23;15.05;;;3.83;;
25213;SDS011;13160;51.834;4.706;2022-11-03T09:30:55;16.27;;;4.43;;
25213;SDS011;13160;51.834;4.706;2022-11-03T09:33:44;14.35;;;3.85;;
25213;SDS011;13160;51.834;4.706;2022-11-03T09:36:37;12.48;;;3.45;;
25213;SDS011;13160;51.834;4.706;2022-11-03T09:39:06;13.15;;;3.90;;
25213;SDS011;13160;51.834;4.706;2022-11-03T09:41:39;14.82;;;3.67;;
25213;SDS011;13160;51.834;4.706;2022-11-03T09:44:25;12.35;;;4.00;;
25213;SDS011;13160;51.834;4.706;2022-11-03T09:47:02;10.45;;;3.53;;
25213;SDS011;13160;51.834;4.706;2022-11-03T09:49:49;14.35;;;4.13;;
25213;SDS011;13160;51.834;4.706;2022-11-03T09:52:26;14.25;;;3.80;;
25213;SDS011;13160;51.834;4.706;2022-11-03T09:54:56;14.70;;;4.07;;
25213;SDS011;13160;51.834;4.706;2022-11-03T09:57:29;11.75;;;3.55;;
25213;SDS011;13160;51.834;4.706;2022-11-03T10:00:12;13.88;;;3.53;;
25213;SDS011;13160;51.834;4.706;2022-11-03T10:03:29;10.15;;;3.70;;
25213;SDS011;13160;51.834;4.706;2022-11-03T10:05:58;13.18;;;4.25;;
25213;SDS011;13160;51.834;4.706;2022-11-03T10:08:32;11.18;;;3.60;;
25213;SDS011;13160;51.834;4.706;2022-11-03T10:11:08;14.20;;;3.65;;
25213;SDS011;13160;51.834;4.706;2022-11-03T10:13:41;15.70;;;4.07;;
25213;SDS011;13160;51.834;4.706;2022-11-03T10:16:27;11.90;;;3.70;;
25213;SDS011;13160;51.834;4.706;2022-11-03T10:19:00;9.10;;;3.10;;
25213;SDS011;13160;51.834;4.706;2022-11-03T10:24:25;8.68;;;3.38;;
25213;SDS011;13160;51.834;4.706;2022-11-03T10:26:54;15.15;;;3.42;;
25213;SDS011;13160;51.834;4.706;2022-11-03T10:29:23;11.82;;;3.45;;
25213;SDS011;13160;51.834;4.706;2022-11-03T10:31:59;10.65;;;3.67;;
25213;SDS011;13160;51.834;4.706;2022-11-03T10:34:33;10.43;;;3.28;;
25213;SDS011;13160;51.834;4.706;2022-11-03T10:37:10;8.90;;;3.40;;
25213;SDS011;13160;51.834;4.706;2022-11-03T10:39:47;11.18;;;3.25;;
25213;SDS011;13160;51.834;4.706;2022-11-03T10:50:20;10.85;;;3.55;;
25213;SDS011;13160;51.834;4.706;2022-11-03T10:52:52;7.88;;;3.03;;
25213;SDS011;13160;51.834;4.706;2022-11-03T10:55:25;13.75;;;3.20;;
25213;SDS011;13160;51.834;4.706;2022-11-03T10:57:58;10.40;;;3.22;;
25213;SDS011;13160;51.834;4.706;2022-11-03T11:00:42;8.50;;;2.58;;
25213;SDS011;13160;51.834;4.706;2022-11-03T11:03:15;10.40;;;3.20;;
25213;SDS011;13160;51.834;4.706;2022-11-03T11:05:46;9.60;;;3.33;;
25213;SDS011;13160;51.834;4.706;2022-11-03T11:09:00;13.60;;;3.33;;
25213;SDS011;13160;51.834;4.706;2022-11-03T11:11:36;16.38;;;3.20;;
25213;SDS011;13160;51.834;4.706;2022-11-03T11:14:34;9.90;;;3.10;;
25213;SDS011;13160;51.834;4.706;2022-11-03T11:17:12;8.23;;;2.67;;
25213;SDS011;13160;51.834;4.706;2022-11-03T11:30:54;11.88;;;3.35;;
25213;SDS011;13160;51.834;4.706;2022-11-03T11:33:46;8.43;;;2.70;;
25213;SDS011;13160;51.834;4.706;2022-11-03T11:36:32;10.75;;;2.80;;
25213;SDS011;13160;51.834;4.706;2022-11-03T11:43:35;10.85;;;3.30;;
25213;SDS011;13160;51.834;4.706;2022-11-03T11:46:36;9.60;;;2.90;;
25213;SDS011;13160;51.834;4.706;2022-11-03T11:49:16;6.60;;;2.13;;
25213;SDS011;13160;51.834;4.706;2022-11-03T11:52:06;9.32;;;2.97;;
25213;SDS011;13160;51.834;4.706;2022-11-03T11:54:44;8.70;;;2.33;;
25213;SDS011;13160;51.834;4.706;2022-11-03T11:57:17;7.82;;;2.78;;
25213;SDS011;13160;51.834;4.706;2022-11-03T11:59:51;11.45;;;2.85;;
25213;SDS011;13160;51.834;4.706;2022-11-03T12:02:26;11.52;;;3.30;;
25213;SDS011;13160;51.834;4.706;2022-11-03T12:05:25;10.23;;;2.78;;
25213;SDS011;13160;51.834;4.706;2022-11-03T12:08:00;11.07;;;2.45;;
25213;SDS011;13160;51.834;4.706;2022-11-03T12:10:52;9.57;;;2.50;;
25213;SDS011;13160;51.834;4.706;2022-11-03T12:16:28;8.65;;;2.55;;
25213;SDS011;13160;51.834;4.706;2022-11-03T12:19:54;8.15;;;2.33;;
25213;SDS011;13160;51.834;4.706;2022-11-03T12:22:38;6.90;;;2.40;;
25213;SDS011;13160;51.834;4.706;2022-11-03T12:28:28;7.22;;;2.88;;
25213;SDS011;13160;51.834;4.706;2022-11-03T12:31:11;8.60;;;2.60;;
25213;SDS011;13160;51.834;4.706;2022-11-03T12:34:00;9.65;;;2.83;;
25213;SDS011;13160;51.834;4.706;2022-11-03T12:39:31;10.35;;;2.50;;
25213;SDS011;13160;51.834;4.706;2022-11-03T12:42:03;6.68;;;2.33;;
25213;SDS011;13160;51.834;4.706;2022-11-03T12:44:37;9.40;;;2.65;;
25213;SDS011;13160;51.834;4.706;2022-11-03T12:47:30;9.25;;;2.60;;
25213;SDS011;13160;51.834;4.706;2022-11-03T12:50:00;11.63;;;2.80;;
25213;SDS011;13160;51.834;4.706;2022-11-03T12:52:34;8.32;;;2.58;;
25213;SDS011;13160;51.834;4.706;2022-11-03T12:55:13;8.70;;;2.47;;
25213;SDS011;13160;51.834;4.706;2022-11-03T12:57:48;7.97;;;2.40;;
25213;SDS011;13160;51.834;4.706;2022-11-03T13:00:17;8.38;;;2.28;;
25213;SDS011;13160;51.834;4.706;2022-11-03T13:03:06;10.60;;;2.85;;
25213;SDS011;13160;51.834;4.706;2022-11-03T13:05:42;6.60;;;2.15;;
25213;SDS011;13160;51.834;4.706;2022-11-03T13:08:11;8.32;;;2.03;;
25213;SDS011;13160;51.834;4.706;2022-11-03T13:10:53;10.43;;;2.72;;
25213;SDS011;13160;51.834;4.706;2022-11-03T13:13:42;8.88;;;2.40;;
25213;SDS011;13160;51.834;4.706;2022-11-03T13:16:16;7.50;;;2.50;;
25213;SDS011;13160;51.834;4.706;2022-11-03T13:18:53;6.85;;;2.20;;
25213;SDS011;13160;51.834;4.706;2022-11-03T13:21:25;8.40;;;2.80;;
25213;SDS011;13160;51.834;4.706;2022-11-03T13:31:33;9.30;;;2.70;;
25213;SDS011;13160;51.834;4.706;2022-11-03T13:34:41;6.97;;;2.28;;
25213;SDS011;13160;51.834;4.706;2022-11-03T13:37:52;7.05;;;2.00;;
25213;SDS011;13160;51.834;4.706;2022-11-03T13:41:10;7.90;;;2.53;;
25213;SDS011;13160;51.834;4.706;2022-11-03T13:44:47;7.32;;;2.60;;
25213;SDS011;13160;51.834;4.706;2022-11-03T13:47:17;7.78;;;2.20;;
25213;SDS011;13160;51.834;4.706;2022-11-03T13:50:07;6.72;;;2.40;;
25213;SDS011;13160;51.834;4.706;2022-11-03T13:52:40;6.88;;;2.75;;
25213;SDS011;13160;51.834;4.706;2022-11-03T13:55:11;8.57;;;2.78;;
25213;SDS011;13160;51.834;4.706;2022-11-03T13:58:03;9.93;;;2.67;;
25213;SDS011;13160;51.834;4.706;2022-11-03T14:01:07;11.95;;;2.40;;
25213;SDS011;13160;51.834;4.706;2022-11-03T14:03:37;7.93;;;2.55;;
25213;SDS011;13160;51.834;4.706;2022-11-03T14:06:31;7.78;;;2.65;;
25213;SDS011;13160;51.834;4.706;2022-11-03T14:09:03;6.18;;;2.20;;
25213;SDS011;13160;51.834;4.706;2022-11-03T14:11:32;7.38;;;2.80;;
25213;SDS011;13160;51.834;4.706;2022-11-03T14:14:18;6.72;;;2.15;;
25213;SDS011;13160;51.834;4.706;2022-11-03T14:16:52;7.65;;;2.38;;
25213;SDS011;13160;51.834;4.706;2022-11-03T14:19:24;8.52;;;2.40;;
25213;SDS011;13160;51.834;4.706;2022-11-03T14:22:15;9.63;;;2.65;;
25213;SDS011;13160;51.834;4.706;2022-11-03T14:24:50;7.93;;;2.63;;
25213;SDS011;13160;51.834;4.706;2022-11-03T14:27:19;7.00;;;2.42;;
25213;SDS011;13160;51.834;4.706;2022-11-03T14:29:51;8.00;;;2.42;;
25213;SDS011;13160;51.834;4.706;2022-11-03T14:32:22;7.90;;;2.92;;
25213;SDS011;13160;51.834;4.706;2022-11-03T14:34:53;6.70;;;2.33;;
25213;SDS011;13160;51.834;4.706;2022-11-03T14:37:23;6.22;;;2.60;;
25213;SDS011;13160;51.834;4.706;2022-11-03T14:39:54;8.80;;;2.72;;
25213;SDS011;13160;51.834;4.706;2022-11-03T14:42:24;8.10;;;2.25;;
25213;SDS011;13160;51.834;4.706;2022-11-03T14:44:57;6.65;;;2.10;;
25213;SDS011;13160;51.834;4.706;2022-11-03T14:50:26;8.43;;;2.40;;
25213;SDS011;13160;51.834;4.706;2022-11-03T14:52:54;7.72;;;3.00;;
25213;SDS011;13160;51.834;4.706;2022-11-03T14:55:28;7.03;;;2.65;;
25213;SDS011;13160;51.834;4.706;2022-11-03T14:57:59;10.30;;;2.53;;
25213;SDS011;13160;51.834;4.706;2022-11-03T15:00:28;6.03;;;2.58;;
25213;SDS011;13160;51.834;4.706;2022-11-03T15:03:12;5.13;;;2.50;;
25213;SDS011;13160;51.834;4.706;2022-11-03T15:05:41;6.63;;;2.42;;
25213;SDS011;13160;51.834;4.706;2022-11-03T15:08:12;7.00;;;2.85;;
25213;SDS011;13160;51.834;4.706;2022-11-03T15:10:44;6.45;;;2.60;;
25213;SDS011;13160;51.834;4.706;2022-11-03T15:13:13;6.30;;;2.55;;
25213;SDS011;13160;51.834;4.706;2022-11-03T15:15:46;6.72;;;2.42;;
25213;SDS011;13160;51.834;4.706;2022-11-03T15:18:39;5.68;;;3.00;;
25213;SDS011;13160;51.834;4.706;2022-11-03T15:21:44;6.38;;;2.97;;
25213;SDS011;13160;51.834;4.706;2022-11-03T15:45:09;7.80;;;3.20;;
25213;SDS011;13160;51.834;4.706;2022-11-03T15:47:46;8.98;;;3.40;;
25213;SDS011;13160;51.834;4.706;2022-11-03T15:50:35;10.20;;;3.50;;
25213;SDS011;13160;51.834;4.706;2022-11-03T15:53:07;7.22;;;3.20;;
25213;SDS011;13160;51.834;4.706;2022-11-03T15:55:39;6.82;;;3.03;;
25213;SDS011;13160;51.834;4.706;2022-11-03T15:58:41;6.78;;;3.00;;
25213;SDS011;13160;51.834;4.706;2022-11-03T16:01:38;6.47;;;3.05;;
25213;SDS011;13160;51.834;4.706;2022-11-03T16:04:17;7.78;;;3.22;;
25213;SDS011;13160;51.834;4.706;2022-11-03T16:07:01;7.10;;;3.13;;
25213;SDS011;13160;51.834;4.706;2022-11-03T16:10:00;6.28;;;2.85;;
25213;SDS011;13160;51.834;4.706;2022-11-03T16:12:29;6.30;;;3.38;;
25213;SDS011;13160;51.834;4.706;2022-11-03T16:59:45;9.02;;;4.40;;
25213;SDS011;13160;51.834;4.706;2022-11-03T17:13:13;11.15;;;4.95;;
25213;SDS011;13160;51.834;4.706;2022-11-03T17:28:12;9.85;;;5.18;;
25213;SDS011;13160;51.834;4.706;2022-11-03T17:30:46;9.73;;;5.07;;
25213;SDS011;13160;51.834;4.706;2022-11-03T17:33:23;9.88;;;5.22;;
25213;SDS011;13160;51.834;4.706;2022-11-03T17:35:54;12.93;;;5.88;;
25213;SDS011;13160;51.834;4.706;2022-11-03T17:38:23;11.93;;;5.60;;
25213;SDS011;13160;51.834;4.706;2022-11-03T17:40:54;11.35;;;5.72;;
25213;SDS011;13160;51.834;4.706;2022-11-03T17:43:24;10.93;;;6.00;;
25213;SDS011;13160;51.834;4.706;2022-11-03T17:45:55;11.00;;;6.00;;
25213;SDS011;13160;51.834;4.706;2022-11-03T17:48:24;11.52;;;6.07;;
25213;SDS011;13160;51.834;4.706;2022-11-03T17:50:53;10.70;;;5.95;;
25213;SDS011;13160;51.834;4.706;2022-11-03T17:53:23;10.68;;;7.22;;
25213;SDS011;13160;51.834;4.706;2022-11-03T17:55:56;11.48;;;6.28;;
25213;SDS011;13160;51.834;4.706;2022-11-03T17:58:48;11.45;;;6.75;;
25213;SDS011;13160;51.834;4.706;2022-11-03T18:01:25;10.57;;;6.78;;
25213;SDS011;13160;51.834;4.706;2022-11-03T18:03:54;10.95;;;6.82;;
25213;SDS011;13160;51.834;4.706;2022-11-03T18:06:24;11.20;;;7.25;;
25213;SDS011;13160;51.834;4.706;2022-11-03T18:08:53;13.07;;;7.65;;
25213;SDS011;13160;51.834;4.706;2022-11-03T18:11:25;12.80;;;7.57;;
25213;SDS011;13160;51.834;4.706;2022-11-03T18:14:14;13.43;;;7.85;;
25213;SDS011;13160;51.834;4.706;2022-11-03T18:16:45;11.88;;;7.40;;
25213;SDS011;13160;51.834;4.706;2022-11-03T18:19:16;12.63;;;8.07;;
25213;SDS011;13160;51.834;4.706;2022-11-03T18:21:48;13.10;;;7.65;;
25213;SDS011;13160;51.834;4.706;2022-11-03T18:24:18;13.68;;;8.13;;
25213;SDS011;13160;51.834;4.706;2022-11-03T18:26:49;14.23;;;7.78;;
25213;SDS011;13160;51.834;4.706;2022-11-03T18:29:18;13.48;;;8.30;;
25213;SDS011;13160;51.834;4.706;2022-11-03T18:31:47;13.38;;;8.77;;
25213;SDS011;13160;51.834;4.706;2022-11-03T18:34:17;12.80;;;8.63;;
25213;SDS011;13160;51.834;4.706;2022-11-03T18:36:50;14.40;;;9.77;;
25213;SDS011;13160;51.834;4.706;2022-11-03T18:39:21;12.15;;;9.23;;
25213;SDS011;13160;51.834;4.706;2022-11-03T18:41:53;13.45;;;9.10;;
25213;SDS011;13160;51.834;4.706;2022-11-03T18:44:23;14.20;;;9.52;;
25213;SDS011;13160;51.834;4.706;2022-11-03T18:50:16;13.80;;;10.20;;